createdAt,value
2023-03-29T00:02:19.682Z,3.58
2023-03-29T00:04:47.073Z,2.85
2023-03-29T00:07:14.296Z,3.55
2023-03-29T00:09:42.444Z,3.28
2023-03-29T00:12:11.558Z,3.42
2023-03-29T00:14:38.672Z,3.35
2023-03-29T00:17:06.334Z,2.90
2023-03-29T00:19:36.582Z,2.92
2023-03-29T00:22:06.001Z,2.55
2023-03-29T00:24:33.226Z,2.40
2023-03-29T00:27:00.950Z,3.05
2023-03-29T00:29:28.770Z,3.55
2023-03-29T00:31:56.091Z,2.45
2023-03-29T00:34:24.941Z,2.38
2023-03-29T00:36:53.065Z,2.50
2023-03-29T00:39:20.575Z,2.55
2023-03-29T00:41:49.708Z,2.83
2023-03-29T00:44:56.330Z,2.65
2023-03-29T00:47:32.835Z,2.63
2023-03-29T00:50:06.914Z,2.38
2023-03-29T00:52:36.260Z,2.47
2023-03-29T00:55:10.035Z,3.03
2023-03-29T00:57:38.854Z,1.88
2023-03-29T01:00:10.141Z,2.33
2023-03-29T01:02:40.146Z,2.42
2023-03-29T01:05:14.459Z,2.78
2023-03-29T01:07:53.685Z,2.30
2023-03-29T01:10:31.046Z,2.45
2023-03-29T01:13:09.318Z,2.28
2023-03-29T01:15:40.805Z,2.90
2023-03-29T01:18:09.132Z,2.50
2023-03-29T01:20:57.473Z,2.45
2023-03-29T01:23:58.332Z,2.40
2023-03-29T01:26:44.914Z,2.33
2023-03-29T01:29:54.157Z,2.45
2023-03-29T01:32:34.936Z,3.10
2023-03-29T01:35:10.139Z,2.88
2023-03-29T01:37:43.688Z,2.45
2023-03-29T01:40:11.193Z,2.67
2023-03-29T01:43:15.765Z,2.10
2023-03-29T01:45:51.408Z,2.03
2023-03-29T01:48:30.780Z,2.20
2023-03-29T01:51:06.974Z,2.33
2023-03-29T01:53:57.298Z,2.10
2023-03-29T01:56:28.590Z,2.28
2023-03-29T01:59:04.091Z,2.13
2023-03-29T02:01:38.391Z,2.17
2023-03-29T02:04:13.139Z,2.35
2023-03-29T02:06:41.670Z,2.10
2023-03-29T02:09:09.186Z,2.95
2023-03-29T02:11:38.951Z,2.65
2023-03-29T02:14:06.422Z,2.70
2023-03-29T02:16:37.552Z,2.70
2023-03-29T02:19:07.804Z,2.38
2023-03-29T02:21:48.240Z,2.80
2023-03-29T02:24:20.113Z,2.40
2023-03-29T02:26:48.356Z,2.65
2023-03-29T02:29:16.257Z,2.47
2023-03-29T02:31:58.616Z,1.90
2023-03-29T02:34:41.726Z,2.60
2023-03-29T02:37:15.600Z,2.50
2023-03-29T02:39:42.891Z,2.50
2023-03-29T02:42:10.922Z,2.67
2023-03-29T02:44:41.342Z,2.10
2023-03-29T02:47:21.283Z,1.90
2023-03-29T02:49:48.625Z,2.75
2023-03-29T02:52:19.119Z,2.42
2023-03-29T02:54:48.859Z,2.45
2023-03-29T02:57:16.047Z,2.40
2023-03-29T02:59:44.601Z,2.78
2023-03-29T03:02:11.829Z,2.20
2023-03-29T03:04:39.302Z,3.28
2023-03-29T03:07:06.527Z,3.25
2023-03-29T03:09:34.327Z,2.97
2023-03-29T03:12:01.846Z,2.35
2023-03-29T03:14:29.440Z,2.63
2023-03-29T03:16:59.033Z,2.80
2023-03-29T03:19:26.272Z,2.20
2023-03-29T03:21:53.420Z,3.00
2023-03-29T03:24:22.131Z,2.45
2023-03-29T03:26:50.005Z,2.95
2023-03-29T03:29:19.112Z,2.67
2023-03-29T03:31:55.629Z,2.72
2023-03-29T03:34:42.716Z,2.38
2023-03-29T03:37:11.975Z,2.28
2023-03-29T03:39:39.546Z,3.00
2023-03-29T03:42:09.014Z,3.25
2023-03-29T03:44:42.068Z,2.70
2023-03-29T03:47:23.619Z,3.25
2023-03-29T03:49:51.813Z,2.63
2023-03-29T03:52:21.188Z,2.42
2023-03-29T03:54:50.110Z,2.60
2023-03-29T03:57:37.265Z,2.22
2023-03-29T04:00:10.214Z,2.25
2023-03-29T04:02:39.987Z,2.38
2023-03-29T04:05:08.637Z,2.75
2023-03-29T04:07:38.714Z,2.45
2023-03-29T04:10:37.158Z,2.22
2023-03-29T04:13:12.820Z,2.35
2023-03-29T04:16:01.694Z,2.33
2023-03-29T04:18:29.501Z,2.08
2023-03-29T04:20:59.529Z,2.30
2023-03-29T04:23:28.818Z,2.25
2023-03-29T04:25:59.389Z,2.13
2023-03-29T04:28:58.781Z,2.53
2023-03-29T04:31:41.899Z,2.33
2023-03-29T04:34:27.699Z,1.98
2023-03-29T04:36:58.701Z,2.72
2023-03-29T04:39:32.968Z,1.98
2023-03-29T04:42:02.861Z,2.10
2023-03-29T04:44:34.947Z,2.10
2023-03-29T04:47:04.965Z,2.67
2023-03-29T04:50:08.372Z,2.55
2023-03-29T04:52:40.797Z,2.45
2023-03-29T04:55:09.238Z,2.60
2023-03-29T04:57:49.213Z,2.50
2023-03-29T05:00:26.972Z,2.22
2023-03-29T05:03:07.930Z,2.65
2023-03-29T05:05:39.426Z,2.65
2023-03-29T05:08:09.400Z,2.65
2023-03-29T05:10:59.737Z,2.00
2023-03-29T05:13:28.748Z,2.33
2023-03-29T05:15:57.103Z,3.85
2023-03-29T05:18:25.265Z,2.17
2023-03-29T05:20:54.067Z,3.55
2023-03-29T05:23:22.044Z,2.55
2023-03-29T05:26:09.720Z,2.60
2023-03-29T05:28:37.942Z,3.55
2023-03-29T05:31:05.848Z,2.65
2023-03-29T05:33:36.812Z,3.22
2023-03-29T05:36:13.435Z,2.63
2023-03-29T05:38:46.768Z,1.73
2023-03-29T05:41:15.868Z,1.92
2023-03-29T05:43:54.653Z,1.67
2023-03-29T05:46:24.789Z,1.95
2023-03-29T05:48:54.646Z,1.90
2023-03-29T05:51:27.306Z,2.00
2023-03-29T05:53:56.212Z,2.92
2023-03-29T05:56:23.454Z,1.65
2023-03-29T05:58:54.872Z,1.63
2023-03-29T06:01:24.609Z,1.60
2023-03-29T06:03:59.633Z,1.60
2023-03-29T06:06:45.425Z,3.08
2023-03-29T06:09:12.856Z,2.10
2023-03-29T06:11:46.578Z,2.30
2023-03-29T06:14:32.603Z,2.55
2023-03-29T06:17:10.801Z,2.38
2023-03-29T06:19:38.206Z,2.50
2023-03-29T06:22:05.416Z,2.20
2023-03-29T06:24:34.421Z,2.90
2023-03-29T06:27:07.767Z,2.33
2023-03-29T06:29:35.862Z,2.10
2023-03-29T06:32:03.307Z,2.30
2023-03-29T06:34:46.858Z,2.38
2023-03-29T06:37:29.955Z,2.22
2023-03-29T06:40:07.020Z,2.22
2023-03-29T06:42:45.337Z,2.35
2023-03-29T06:45:33.612Z,2.35
2023-03-29T06:48:05.026Z,2.78
2023-03-29T06:50:32.647Z,2.20
2023-03-29T06:53:16.972Z,2.45
2023-03-29T06:55:52.966Z,2.13
2023-03-29T06:58:40.858Z,1.98
2023-03-29T07:01:27.112Z,2.58
2023-03-29T07:04:04.574Z,2.80
2023-03-29T07:06:39.118Z,2.83
2023-03-29T07:09:06.636Z,2.15
2023-03-29T07:12:08.961Z,2.90
2023-03-29T07:14:36.171Z,3.20
2023-03-29T07:17:04.947Z,3.67
2023-03-29T07:19:34.233Z,2.88
2023-03-29T07:22:33.802Z,3.17
2023-03-29T07:25:01.967Z,3.25
2023-03-29T07:27:30.068Z,2.17
2023-03-29T07:29:58.073Z,4.03
2023-03-29T07:32:25.265Z,2.72
2023-03-29T07:35:12.198Z,2.63
2023-03-29T07:37:39.691Z,3.42
2023-03-29T07:40:16.630Z,2.95
2023-03-29T07:43:09.354Z,3.33
2023-03-29T07:45:37.421Z,3.25
2023-03-29T07:48:09.927Z,3.30
2023-03-29T07:50:50.700Z,2.90
2023-03-29T07:53:21.062Z,3.25
2023-03-29T07:55:49.869Z,2.63
2023-03-29T07:58:46.669Z,4.05
2023-03-29T08:01:18.898Z,3.40
2023-03-29T08:04:12.127Z,3.78
2023-03-29T08:06:58.220Z,3.13
2023-03-29T08:09:34.891Z,3.63
2023-03-29T08:12:01.982Z,3.50
2023-03-29T08:14:36.090Z,3.55
2023-03-29T08:17:26.397Z,2.92
2023-03-29T08:19:53.658Z,2.65
2023-03-29T08:22:23.643Z,2.50
2023-03-29T08:25:07.282Z,2.80
2023-03-29T08:27:39.848Z,2.70
2023-03-29T08:30:10.296Z,2.55
2023-03-29T08:32:41.663Z,2.90
2023-03-29T08:35:10.336Z,2.60
2023-03-29T08:37:43.890Z,2.88
2023-03-29T08:40:24.706Z,3.38
2023-03-29T08:42:54.435Z,3.00
2023-03-29T08:45:37.918Z,2.92
2023-03-29T08:48:22.603Z,2.67
2023-03-29T08:50:56.524Z,3.30
2023-03-29T08:53:42.373Z,3.50
2023-03-29T08:56:20.614Z,2.92
2023-03-29T09:01:48.664Z,2.38
2023-03-29T09:04:25.306Z,2.45
2023-03-29T09:06:59.503Z,2.60
2023-03-29T09:09:34.610Z,2.50
2023-03-29T09:12:16.485Z,2.75
2023-03-29T09:15:10.678Z,2.70
2023-03-29T09:18:04.650Z,2.92
2023-03-29T09:20:44.134Z,2.40
2023-03-29T09:23:22.326Z,2.80
2023-03-29T09:26:43.174Z,2.70
2023-03-29T09:29:45.265Z,2.83
2023-03-29T09:32:20.800Z,2.40
2023-03-29T09:35:20.127Z,2.92
2023-03-29T09:37:51.288Z,2.78
2023-03-29T09:40:32.936Z,2.72
2023-03-29T09:43:18.370Z,2.80
2023-03-29T09:45:53.437Z,3.67
2023-03-29T09:48:21.840Z,3.28
2023-03-29T09:50:55.857Z,3.00
2023-03-29T09:53:24.930Z,2.45
2023-03-29T09:56:08.745Z,2.60
2023-03-29T09:58:46.993Z,2.85
2023-03-29T10:01:20.235Z,2.90
2023-03-29T10:03:53.194Z,2.85
2023-03-29T10:06:24.322Z,2.47
2023-03-29T10:09:01.304Z,2.63
2023-03-29T10:11:47.630Z,3.20
2023-03-29T10:14:41.252Z,3.05
2023-03-29T10:17:16.599Z,2.55
2023-03-29T10:19:58.398Z,2.67
2023-03-29T10:22:41.132Z,3.03
2023-03-29T10:25:17.256Z,3.00
2023-03-29T10:27:46.896Z,2.50
2023-03-29T10:30:23.906Z,2.53
2023-03-29T10:33:00.012Z,2.67
2023-03-29T10:35:33.333Z,3.08
2023-03-29T10:38:04.700Z,2.53
2023-03-29T10:40:34.120Z,3.20
2023-03-29T10:43:12.491Z,3.00
2023-03-29T10:45:40.951Z,2.67
2023-03-29T10:48:16.336Z,3.35
2023-03-29T10:50:49.238Z,4.05
2023-03-29T10:53:24.799Z,3.30
2023-03-29T10:56:23.005Z,3.13
2023-03-29T10:59:12.079Z,3.03
2023-03-29T11:01:59.006Z,3.30
2023-03-29T11:04:28.966Z,2.58
2023-03-29T11:07:19.652Z,2.65
2023-03-29T11:09:49.819Z,3.20
2023-03-29T11:12:40.306Z,3.30
2023-03-29T11:15:17.951Z,3.75
2023-03-29T11:17:50.827Z,3.83
2023-03-29T11:20:38.689Z,4.07
2023-03-29T11:23:34.357Z,3.45
2023-03-29T11:26:15.595Z,3.58
2023-03-29T11:28:56.367Z,3.97
2023-03-29T11:31:28.762Z,4.10
2023-03-29T11:34:14.381Z,4.47
2023-03-29T11:36:59.955Z,3.67
2023-03-29T11:39:38.618Z,4.80
2023-03-29T11:42:20.203Z,4.28
2023-03-29T11:44:50.778Z,4.82
2023-03-29T11:47:22.591Z,4.03
2023-03-29T11:49:57.381Z,4.45
2023-03-29T11:52:41.089Z,4.32
2023-03-29T11:57:56.533Z,3.67
2023-03-29T12:00:38.803Z,3.28
2023-03-29T12:03:24.658Z,3.70
2023-03-29T12:05:58.571Z,4.35
2023-03-29T12:08:55.149Z,4.07
2023-03-29T12:11:22.825Z,3.63
2023-03-29T12:13:56.562Z,3.47
2023-03-29T12:16:34.322Z,4.25
2023-03-29T12:19:07.350Z,3.45
2023-03-29T12:21:36.569Z,3.88
2023-03-29T12:24:06.332Z,4.15
2023-03-29T12:26:55.346Z,4.00
2023-03-29T12:29:39.326Z,3.50
2023-03-29T12:32:21.491Z,3.20
2023-03-29T12:35:16.720Z,3.95
2023-03-29T12:38:32.856Z,4.03
2023-03-29T12:41:35.555Z,4.22
2023-03-29T12:44:23.931Z,4.55
2023-03-29T12:47:00.481Z,4.18
2023-03-29T12:49:32.559Z,4.47
2023-03-29T12:52:02.387Z,4.72
2023-03-29T12:54:33.270Z,4.40
2023-03-29T12:57:02.703Z,4.20
2023-03-29T12:59:38.844Z,4.57
2023-03-29T13:02:15.253Z,4.32
2023-03-29T13:04:42.951Z,4.03
2023-03-29T13:07:15.024Z,3.83
2023-03-29T13:10:03.520Z,4.00
2023-03-29T13:12:43.331Z,3.92
2023-03-29T13:15:19.176Z,4.38
2023-03-29T13:18:04.855Z,3.72
2023-03-29T13:20:45.929Z,4.20
2023-03-29T13:23:43.350Z,4.03
2023-03-29T13:26:34.476Z,4.53
2023-03-29T13:29:19.783Z,3.90
2023-03-29T13:32:04.463Z,4.72
2023-03-29T13:34:56.340Z,4.00
2023-03-29T13:37:40.837Z,4.68
2023-03-29T13:40:30.312Z,3.45
2023-03-29T13:43:08.953Z,3.63
2023-03-29T13:45:38.639Z,3.67
2023-03-29T13:48:23.703Z,3.90
2023-03-29T13:51:01.616Z,4.10
2023-03-29T13:53:38.228Z,4.00
2023-03-29T13:56:15.413Z,3.53
2023-03-29T13:58:49.692Z,3.88
2023-03-29T14:01:39.179Z,3.85
2023-03-29T14:04:09.826Z,3.42
2023-03-29T14:06:38.557Z,3.50
2023-03-29T14:09:08.642Z,3.53
2023-03-29T14:11:36.504Z,3.95
2023-03-29T14:14:07.051Z,3.33
2023-03-29T14:16:40.026Z,4.32
2023-03-29T14:19:24.659Z,2.85
2023-03-29T14:21:53.152Z,3.35
2023-03-29T14:24:27.229Z,3.47
2023-03-29T14:26:54.794Z,3.30
2023-03-29T14:29:24.213Z,3.00
2023-03-29T14:31:52.833Z,3.83
2023-03-29T14:34:20.236Z,3.60
2023-03-29T14:36:49.336Z,2.88
2023-03-29T14:39:20.028Z,3.20
2023-03-29T14:41:52.919Z,3.10
2023-03-29T14:44:22.525Z,3.13
2023-03-29T14:46:49.786Z,2.67
2023-03-29T14:49:19.418Z,3.30
2023-03-29T14:51:47.805Z,2.83
2023-03-29T14:54:29.733Z,2.95
2023-03-29T14:56:57.067Z,2.85
2023-03-29T14:59:37.488Z,2.90
2023-03-29T15:02:21.839Z,2.90
2023-03-29T15:04:56.466Z,3.22
2023-03-29T15:07:26.948Z,2.95
2023-03-29T15:09:56.235Z,3.85
2023-03-29T15:12:23.598Z,2.92
2023-03-29T15:14:52.424Z,2.88
2023-03-29T15:17:46.997Z,2.95
2023-03-29T15:20:29.814Z,3.00
2023-03-29T15:23:10.289Z,3.08
2023-03-29T15:25:46.128Z,2.80
2023-03-29T15:28:26.404Z,2.90
2023-03-29T15:31:07.179Z,2.85
2023-03-29T15:33:38.606Z,2.58
2023-03-29T15:36:08.298Z,2.60
2023-03-29T15:38:43.992Z,2.88
2023-03-29T15:41:13.309Z,2.60
2023-03-29T15:43:41.385Z,3.10
2023-03-29T15:46:12.005Z,2.72
2023-03-29T15:48:39.711Z,3.40
2023-03-29T15:51:07.497Z,3.03
2023-03-29T15:53:35.833Z,2.85
2023-03-29T15:56:07.271Z,2.75
2023-03-29T15:58:35.783Z,2.75
2023-03-29T16:01:23.386Z,2.67
2023-03-29T16:03:50.905Z,3.05
2023-03-29T16:06:18.373Z,2.90
2023-03-29T16:08:46.009Z,3.40
2023-03-29T16:11:13.267Z,3.20
2023-03-29T16:13:40.460Z,2.92
2023-03-29T16:16:10.740Z,2.60
2023-03-29T16:18:38.272Z,2.20
2023-03-29T16:21:06.299Z,2.65
2023-03-29T16:23:34.347Z,2.83
2023-03-29T16:26:01.665Z,3.05
2023-03-29T16:28:28.823Z,2.40
2023-03-29T16:30:56.145Z,2.70
2023-03-29T16:33:23.347Z,2.58
2023-03-29T16:35:50.600Z,2.10
2023-03-29T16:38:17.721Z,2.60
2023-03-29T16:40:45.111Z,2.90
2023-03-29T16:43:16.103Z,2.83
2023-03-29T16:45:43.320Z,2.30
2023-03-29T16:48:18.037Z,2.55
2023-03-29T16:50:49.375Z,1.98
2023-03-29T16:53:18.481Z,5.05
2023-03-29T16:55:46.758Z,3.53
2023-03-29T16:58:15.229Z,2.40
2023-03-29T17:00:44.438Z,2.75
2023-03-29T17:03:13.272Z,2.40
2023-03-29T17:05:41.691Z,2.33
2023-03-29T17:08:10.016Z,2.67
2023-03-29T17:10:40.794Z,2.45
2023-03-29T17:13:08.650Z,2.67
2023-03-29T17:15:39.354Z,2.50
2023-03-29T17:18:07.468Z,2.90
2023-03-29T17:20:34.643Z,4.70
2023-03-29T17:23:01.722Z,2.67
2023-03-29T17:25:28.819Z,2.00
2023-03-29T17:27:56.015Z,2.15
2023-03-29T17:30:23.146Z,2.10
2023-03-29T17:32:52.144Z,2.30
2023-03-29T17:35:19.552Z,2.72
2023-03-29T17:37:46.688Z,3.10
2023-03-29T17:40:14.158Z,2.60
2023-03-29T17:42:42.291Z,2.58
2023-03-29T17:45:10.903Z,2.85
2023-03-29T17:47:38.750Z,2.58
2023-03-29T17:50:07.260Z,2.65
2023-03-29T17:52:34.689Z,2.55
2023-03-29T17:55:01.972Z,2.75
2023-03-29T17:57:29.130Z,2.20
2023-03-29T17:59:56.299Z,2.42
2023-03-29T18:02:24.768Z,2.67
2023-03-29T18:04:52.033Z,2.20
2023-03-29T18:07:19.107Z,3.10
2023-03-29T18:09:46.226Z,2.83
2023-03-29T18:12:13.304Z,2.78
2023-03-29T18:14:40.632Z,3.33
2023-03-29T18:17:07.823Z,2.50
2023-03-29T18:19:35.096Z,3.00
2023-03-29T18:22:02.163Z,2.30
2023-03-29T18:24:29.466Z,3.88
2023-03-29T18:26:56.605Z,3.28
2023-03-29T18:29:24.025Z,2.47
2023-03-29T18:31:51.228Z,2.47
2023-03-29T18:34:18.317Z,2.75
2023-03-29T18:36:45.471Z,2.65
2023-03-29T18:39:13.567Z,2.50
2023-03-29T18:41:40.648Z,3.20
2023-03-29T18:44:07.910Z,3.22
2023-03-29T18:46:35.333Z,4.57
2023-03-29T18:49:03.864Z,4.20
2023-03-29T18:51:30.994Z,3.58
2023-03-29T18:53:58.205Z,3.42
2023-03-29T18:56:25.662Z,3.58
2023-03-29T18:58:53.717Z,4.03
2023-03-29T19:01:21.223Z,3.90
2023-03-29T19:03:48.698Z,4.57
2023-03-29T19:06:16.604Z,3.83
2023-03-29T19:08:43.754Z,4.25
2023-03-29T19:11:14.201Z,3.45
2023-03-29T19:13:41.470Z,3.95
2023-03-29T19:16:09.176Z,3.85
2023-03-29T19:18:36.639Z,6.50
2023-03-29T19:21:04.049Z,6.30
2023-03-29T19:23:31.378Z,4.53
2023-03-29T19:26:01.242Z,4.90
2023-03-29T19:28:29.162Z,3.50
2023-03-29T19:30:58.477Z,4.25
2023-03-29T19:33:25.642Z,4.38
2023-03-29T19:35:52.863Z,4.18
2023-03-29T19:38:21.307Z,4.85
2023-03-29T19:40:50.440Z,4.72
2023-03-29T19:43:18.336Z,4.00
2023-03-29T19:45:46.921Z,4.45
2023-03-29T19:48:21.763Z,4.90
2023-03-29T19:50:50.221Z,4.47
2023-03-29T19:53:17.455Z,4.50
2023-03-29T19:55:45.310Z,4.63
2023-03-29T19:58:13.071Z,4.35
2023-03-29T20:00:41.535Z,4.45
2023-03-29T20:03:13.862Z,7.32
2023-03-29T20:05:41.309Z,5.95
2023-03-29T20:08:08.834Z,5.80
2023-03-29T20:10:36.349Z,5.47
2023-03-29T20:13:06.074Z,5.32
2023-03-29T20:15:35.144Z,5.80
2023-03-29T20:18:02.286Z,5.93
2023-03-29T20:20:29.929Z,5.70
2023-03-29T20:23:04.558Z,6.50
2023-03-29T20:25:34.357Z,5.32
2023-03-29T20:28:01.477Z,5.55
2023-03-29T20:30:28.593Z,4.72
2023-03-29T20:32:56.047Z,4.85
2023-03-29T20:35:23.258Z,4.30
2023-03-29T20:37:50.341Z,4.47
2023-03-29T20:40:17.587Z,3.72
2023-03-29T20:42:46.206Z,4.20
2023-03-29T20:45:18.676Z,4.45
2023-03-29T20:47:57.447Z,4.35
2023-03-29T20:50:26.392Z,3.90
2023-03-29T20:52:56.589Z,3.90
2023-03-29T20:55:24.520Z,3.60
2023-03-29T20:57:57.813Z,5.13
2023-03-29T21:00:31.624Z,3.63
2023-03-29T21:05:27.845Z,4.60
2023-03-29T21:07:55.175Z,4.05
2023-03-29T21:10:23.597Z,3.65
2023-03-29T21:12:52.182Z,4.80
2023-03-29T21:15:19.739Z,4.75
2023-03-29T21:17:47.527Z,4.35
2023-03-29T21:20:15.508Z,4.63
2023-03-29T21:22:43.117Z,6.40
2023-03-29T21:25:12.376Z,5.20
2023-03-29T21:27:39.470Z,5.85
2023-03-29T21:30:07.976Z,6.43
2023-03-29T21:32:36.407Z,6.07
2023-03-29T21:35:03.750Z,6.57
2023-03-29T21:37:31.062Z,6.07
2023-03-29T21:39:58.159Z,5.55
2023-03-29T21:42:25.507Z,6.00
2023-03-29T21:44:52.644Z,5.65
2023-03-29T21:47:19.742Z,6.72
2023-03-29T21:49:46.862Z,5.53
2023-03-29T21:52:14.024Z,6.70
2023-03-29T21:54:41.162Z,6.63
2023-03-29T21:57:08.663Z,7.93
2023-03-29T21:59:35.847Z,6.75
2023-03-29T22:02:02.993Z,7.55
2023-03-29T22:04:37.228Z,7.00
2023-03-29T22:07:06.233Z,7.50
2023-03-29T22:09:35.224Z,7.68
2023-03-29T22:12:04.772Z,8.07
2023-03-29T22:14:35.120Z,10.10
2023-03-29T22:17:07.838Z,9.07
2023-03-29T22:19:39.557Z,9.02
2023-03-29T22:22:13.211Z,9.07
2023-03-29T22:27:08.616Z,9.65
2023-03-29T22:29:35.823Z,10.82
2023-03-29T22:32:03.101Z,10.63
2023-03-29T22:34:30.502Z,10.02
2023-03-29T22:36:57.607Z,10.63
2023-03-29T22:39:24.799Z,9.15
2023-03-29T22:41:51.891Z,9.90
2023-03-29T22:44:19.039Z,8.80
2023-03-29T22:46:46.670Z,10.07
2023-03-29T22:49:13.745Z,8.70
2023-03-29T22:51:40.816Z,8.00
2023-03-29T22:54:08.001Z,7.00
2023-03-29T22:56:35.235Z,6.47
2023-03-29T22:59:02.314Z,7.20
2023-03-29T23:01:29.442Z,6.78
2023-03-29T23:03:56.642Z,6.60
2023-03-29T23:06:23.885Z,6.63
2023-03-29T23:08:50.962Z,6.65
2023-03-29T23:11:18.028Z,6.82
2023-03-29T23:13:48.601Z,6.68
2023-03-29T23:16:16.202Z,7.97
2023-03-29T23:18:43.338Z,6.53
2023-03-29T23:21:10.526Z,6.78
2023-03-29T23:23:38.295Z,6.90
2023-03-29T23:26:08.444Z,6.10
2023-03-29T23:28:35.645Z,6.45
2023-03-29T23:31:09.304Z,7.13
2023-03-29T23:33:40.411Z,7.20
2023-03-29T23:36:10.189Z,7.70
2023-03-29T23:38:38.715Z,6.60
2023-03-29T23:41:08.554Z,5.50
2023-03-29T23:43:40.437Z,6.05
2023-03-29T23:46:15.996Z,6.70
2023-03-29T23:48:48.869Z,7.15
2023-03-29T23:51:18.853Z,7.00
2023-03-29T23:53:47.359Z,5.30
2023-03-29T23:56:14.702Z,7.15
2023-03-29T23:58:41.800Z,6.50
